DW2380 Paimio FI current weather conditions

sailwx.info

Wind from 360 at 2 knots gusting 6

Air temperature 15.0° C
Dewpoint 13.5° C

Last reported at 2016-Jun-30 20:49 UTC.
Time now 2016-Jun-30 21:28 UTC

Location: N 60°28' E 022°40'.
View on Google Maps.

See reports from other nearby stations

  
Tides and Currents Weather Stations Pressure Air Temp Water Temp Dewpoint Dewpoint Depression Visibility Wind Speed Wind Dir Waves Ship Positions
date/time (UTC)wind fromknots sea level pressurealtimeterstation pressurevisibilityair tempwater tempwave heightnotes
2016-Jun-30 20:49 360 2 gusting 6 15.0
2016-Jun-30 20:34 360 2 gusting 6 15.0
2016-Jun-30 20:19 360 0 gusting 5 15.6
2016-Jun-30 20:04 360 4 gusting 6 15.6
2016-Jun-30 19:49 360 3 gusting 7 15.6
2016-Jun-30 19:33 360 3 gusting 7 15.6
2016-Jun-30 19:18 360 3 gusting 11 16.1
2016-Jun-30 19:03 360 4 gusting 11 16.1
2016-Jun-30 18:48 360 5 gusting 11 16.7
2016-Jun-30 18:33 360 7 gusting 12 16.7
2016-Jun-30 18:18 360 6 gusting 13 17.2
2016-Jun-30 18:03 360 6 gusting 9 17.2
2016-Jun-30 17:48 360 5 gusting 9 17.2
2016-Jun-30 17:32 360 3 gusting 11 17.8
2016-Jun-30 17:17 360 7 gusting 10 17.2
2016-Jun-30 17:02 360 6 gusting 11 17.8
2016-Jun-30 16:47 360 7 gusting 13 17.8
2016-Jun-30 16:32 360 6 gusting 13 18.3
2016-Jun-30 16:17 360 6 gusting 14 17.8
2016-Jun-30 16:02 360 8 gusting 15 18.9
2016-Jun-30 15:47 360 6 gusting 13 18.9
2016-Jun-30 15:31 360 5 gusting 13 18.9
2016-Jun-30 15:16 360 5 gusting 13 18.9
2016-Jun-30 15:01 360 6 gusting 12 18.9
2016-Jun-30 14:46 360 6 gusting 12 20.0
2016-Jun-30 14:32 360 6 gusting 13 19.4
2016-Jun-30 14:16 360 8 gusting 15 19.4
2016-Jun-30 14:01 360 7 gusting 13 20.6
2016-Jun-30 13:46 360 6 gusting 13 20.6
2016-Jun-30 13:31 360 7 gusting 13 21.1
2016-Jun-30 13:16 360 6 gusting 13 21.1
2016-Jun-30 13:01 360 8 gusting 15 22.2
2016-Jun-30 12:46 360 6 gusting 13 21.7
2016-Jun-30 12:29 360 6 gusting 13 21.1
2016-Jun-30 12:14 360 6 gusting 14 21.1
2016-Jun-30 11:59 360 5 gusting 13 21.1
2016-Jun-30 11:44 360 4 gusting 12 18.9
2016-Jun-30 11:29 360 6 gusting 13 19.4
2016-Jun-30 11:14 360 8 gusting 19 19.4
2016-Jun-30 10:59 360 6 gusting 15 19.4
2016-Jun-30 10:43 360 9 gusting 15 19.4
2016-Jun-30 10:28 360 6 gusting 13 21.1
2016-Jun-30 10:13 360 6 gusting 13 20.0
2016-Jun-30 09:58 360 6 gusting 13 20.6
2016-Jun-30 09:43 360 7 gusting 13 20.6
2016-Jun-30 09:28 360 5 gusting 9 20.0
2016-Jun-30 09:13 360 5 gusting 8 19.4
2016-Jun-30 08:57 360 1 gusting 6 20.0
2016-Jun-30 08:42 360 1 gusting 6 19.4
2016-Jun-30 08:27 360 0 gusting 6 20.0
2016-Jun-30 08:12 360 0 gusting 6 18.3
2016-Jun-30 07:57 360 4 gusting 8 17.8
2016-Jun-30 07:41 360 2 gusting 6 17.8
2016-Jun-30 07:26 360 5 gusting 9 17.2
2016-Jun-30 07:11 360 3 gusting 8 17.8
2016-Jun-30 06:56 360 2 gusting 8 18.3
2016-Jun-30 06:41 18.3
2016-Jun-30 06:26 18.3
2016-Jun-30 06:11 360 4 gusting 9 18.3
2016-Jun-30 05:56 360 4 gusting 8 17.8
2016-Jun-30 05:41 360 4 gusting 7 17.2
2016-Jun-30 05:26 360 5 gusting 8 16.7
2016-Jun-30 05:11 360 2 gusting 6 16.7
2016-Jun-30 04:56 360 3 gusting 8 16.1
2016-Jun-30 04:39 360 0 gusting 6 15.6
2016-Jun-30 04:24 360 0 gusting 6 15.6
2016-Jun-30 04:09 360 3 gusting 6 15.6
2016-Jun-30 03:54 360 0 gusting 6 15.6
2016-Jun-30 03:39 360 3 gusting 6 15.0
2016-Jun-30 03:24 360 2 gusting 6 15.0
2016-Jun-30 03:08 360 4 gusting 7 14.4
2016-Jun-30 02:53 360 3 gusting 8 14.4
2016-Jun-30 02:38 360 4 gusting 6 14.4
2016-Jun-30 02:23 360 14.4
2016-Jun-30 02:08 360 13.9
2016-Jun-30 01:53 360 13.9
2016-Jun-30 01:38 360 13.9
2016-Jun-30 01:23 360 13.9
2016-Jun-30 01:07 360 13.9
2016-Jun-30 00:52 360 13.9
2016-Jun-30 00:37 360 13.9
2016-Jun-30 00:22 360 14.4
2016-Jun-30 00:07 360 14.4
2016-Jun-29 23:51 360 14.4
2016-Jun-29 23:36 360 14.4
2016-Jun-29 23:21 360 15.0
2016-Jun-29 23:06 360 15.0
2016-Jun-29 22:51 360 15.0
2016-Jun-29 22:36 360 15.0
2016-Jun-29 22:21 360 15.0
2016-Jun-29 22:06 360 15.6
2016-Jun-29 21:51 360 15.6
2016-Jun-29 21:36 360 15.6
2016-Jun-29 21:21 360 15.6
2016-Jun-29 21:06 360 15.6
2016-Jun-29 20:51 360 15.6
2016-Jun-29 20:34 360 15.6
2016-Jun-29 20:19 360 15.6
2016-Jun-29 20:04 360 15.6
2016-Jun-29 19:49 360 15.6
2016-Jun-29 19:34 360 15.6
2016-Jun-29 19:19 360 16.1
2016-Jun-29 19:03 360 16.7
2016-Jun-29 18:48 360 17.2
2016-Jun-29 18:33 360 17.2
2016-Jun-29 18:18 360 17.8
2016-Jun-29 18:03 360 1 gusting 4 18.9
2016-Jun-29 17:48 360 0 gusting 5 19.4
2016-Jun-29 17:33 360 1 gusting 6 19.4
2016-Jun-29 17:17 360 1 gusting 6 20.0
2016-Jun-29 17:02 360 20.6
2016-Jun-29 16:47 360 1 gusting 6 20.6
2016-Jun-29 16:32 360 2 gusting 6 21.1
2016-Jun-29 16:17 360 1 gusting 6 21.1
2016-Jun-29 16:02 360 4 gusting 7 21.7
2016-Jun-29 15:47 360 3 gusting 6 21.1
2016-Jun-29 15:32 360 1 gusting 6 21.7
2016-Jun-29 15:16 360 2 gusting 7 21.7
2016-Jun-29 15:01 360 4 gusting 9 22.2
2016-Jun-29 14:46 360 0 gusting 7 21.7
2016-Jun-29 14:31 360 5 gusting 11 21.7
2016-Jun-29 14:16 360 4 gusting 9 22.2
2016-Jun-29 14:01 360 6 gusting 12 22.2
2016-Jun-29 13:46 360 4 gusting 11 22.2
2016-Jun-29 13:31 360 5 gusting 10 22.2
2016-Jun-29 13:16 360 5 gusting 9 22.2
2016-Jun-29 13:01 360 5 gusting 10 22.2
2016-Jun-29 12:46 360 5 gusting 9 22.2
2016-Jun-29 12:31 360 6 gusting 11 22.2
2016-Jun-29 12:14 360 6 gusting 9 22.2
2016-Jun-29 11:59 360 3 gusting 10 22.2
2016-Jun-29 11:44 360 6 gusting 12 22.2
2016-Jun-29 11:29 360 6 gusting 12 22.2
2016-Jun-29 11:14 360 6 gusting 13 22.2
2016-Jun-29 10:59 360 6 gusting 13 22.2
2016-Jun-29 10:44 360 6 gusting 11 22.2
2016-Jun-29 10:28 360 6 gusting 13 21.7
2016-Jun-29 10:13 360 7 gusting 12 22.2
2016-Jun-29 09:58 360 6 gusting 11 22.2
2016-Jun-29 09:43 360 4 gusting 12 21.7
2016-Jun-29 09:28 360 4 gusting 12 22.2
2016-Jun-29 09:13 360 5 gusting 11 22.8
2016-Jun-29 08:58 360 6 gusting 11 22.8
2016-Jun-29 08:42 360 0 gusting 8 22.2
2016-Jun-29 08:27 360 3 gusting 7 22.2
2016-Jun-29 08:12 360 4 gusting 13 22.2
2016-Jun-29 07:57 360 3 gusting 10 21.7
2016-Jun-29 07:42 360 5 gusting 10 21.7
2016-Jun-29 07:26 360 6 gusting 10 21.1
2016-Jun-29 07:11 360 1 gusting 8 20.6
2016-Jun-29 06:56 360 4 gusting 8 20.0
2016-Jun-29 06:41 360 3 gusting 7 19.4
2016-Jun-29 06:26 360 3 gusting 9 18.9
2016-Jun-29 06:11 360 4 gusting 7 18.3
2016-Jun-29 05:56 360 4 gusting 8 18.3
2016-Jun-29 05:41 360 2 gusting 7 17.8
2016-Jun-29 05:26 360 3 gusting 6 17.2
2016-Jun-29 05:11 360 5 gusting 7 17.2
2016-Jun-29 04:57 360 3 gusting 6 16.7
2016-Jun-29 04:39 360 1 gusting 6 16.1
2016-Jun-29 04:24 360 4 gusting 7 16.1
2016-Jun-29 04:09 360 3 gusting 7 15.6
2016-Jun-29 03:54 360 3 gusting 8 15.0
2016-Jun-29 03:39 360 2 gusting 6 15.0
2016-Jun-29 03:24 360 2 gusting 6 14.4
2016-Jun-29 03:08 360 14.4
2016-Jun-29 02:53 360 13.9
2016-Jun-29 02:38 360 13.9
2016-Jun-29 02:23 360 0 gusting 6 13.9
2016-Jun-29 02:08 360 3 gusting 6 13.9
2016-Jun-29 01:53 360 2 gusting 6 13.3
2016-Jun-29 01:38 360 3 gusting 7 13.3
2016-Jun-29 01:22 360 1 gusting 5 12.2
2016-Jun-29 01:07 360 11.7
2016-Jun-29 00:52 360 11.7
2016-Jun-29 00:37 360 12.2
2016-Jun-29 00:22 360 12.2
2016-Jun-29 00:06 360 12.8
2016-Jun-28 23:52 360 12.8
2016-Jun-28 23:36 360 13.3
2016-Jun-28 23:21 360 13.3
2016-Jun-28 23:06 360 13.9
2016-Jun-28 22:51 360 13.9
2016-Jun-28 22:36 360 14.4
2016-Jun-28 22:21 360 14.4
2016-Jun-28 22:06 360 15.0
2016-Jun-28 21:51 360 15.0
2016-Jun-28 21:36 360 15.6
2016-Jun-28 21:21 360 15.6
2016-Jun-28 21:04 360 1 gusting 5 15.6